SBOSBO BHD / EGAC
Speedbird OnlineSpeedbird Online BHD / EGAC

George Best Belfast City Airport
20:41 12°C

Location Belfast, United Kingdom
Latitude: 54.618099212646484
Longitude: -5.872499942779541
Web Airport Website | Wikipedia
Altitude 5 Meter / 15 Feet
Distance 529 KM / 329 Miles
from London.
Time Zone UTC +1 hours (Europe/London)
Codes IATA: BHD
ICAO: EGAC
Runways
RunwayLength (m)Surface
041829Asphalt
221829Asphalt
Radio
TypeDescriptionFrequency
APPBELFAST APP130.85
ATISATIS136.625
TWRBELFAST TWR122.825
Live ATC
METAR EGAC 241920Z AUTO 34006KT 310V030 9999 NCD 12/07 Q1024
TAF TAF EGAC 241659Z 2418/2421 01010KT 9999 SCT035
Weather As Of 24 Sep 2022 20:41
Description Scattered clouds
Wind 11 km/h from North (340°)
Cloud Cover 28%
Precipitation Rain: none, Snow: none
Sunrise 07:12
Sunset 19:18
Lounges Aspire Lounge , Main Terminal
Rotations During the last 90 days there were
194 flights from LHR
172 flights from LCY
202 flights to LHR
169 flights to LCY


© 2017-2022 Speedbird Online